createdAt,value
2022-08-30T00:00:51.350Z,99.90
2022-08-30T00:05:56.728Z,99.90
2022-08-30T00:11:02.256Z,99.90
2022-08-30T00:16:07.983Z,99.90
2022-08-30T00:21:14.035Z,99.90
2022-08-30T00:26:19.443Z,99.90
2022-08-30T00:31:24.830Z,99.90
2022-08-30T00:36:30.138Z,99.90
2022-08-30T00:41:35.941Z,99.90
2022-08-30T00:46:42.191Z,99.90
2022-08-30T00:51:47.506Z,99.90
2022-08-30T00:56:54.111Z,99.90
2022-08-30T01:02:02.232Z,99.90
2022-08-30T01:07:08.484Z,99.90
2022-08-30T01:12:14.334Z,99.90
2022-08-30T01:17:21.656Z,99.90
2022-08-30T01:22:53.975Z,99.90
2022-08-30T01:28:02.293Z,99.90
2022-08-30T01:33:09.031Z,99.90
2022-08-30T01:38:17.236Z,99.90
2022-08-30T01:43:22.473Z,99.90
2022-08-30T01:48:31.030Z,99.90
2022-08-30T01:53:36.047Z,99.90
2022-08-30T01:58:41.829Z,99.90
2022-08-30T02:03:48.533Z,99.90
2022-08-30T02:08:54.010Z,99.90
2022-08-30T02:13:59.270Z,99.90
2022-08-30T02:19:05.507Z,99.90
2022-08-30T02:24:11.924Z,99.90
2022-08-30T02:29:17.506Z,99.90
2022-08-30T02:34:22.956Z,99.90
2022-08-30T02:39:28.315Z,99.90
2022-08-30T02:44:33.494Z,99.90
2022-08-30T02:49:38.774Z,99.90
2022-08-30T02:54:44.470Z,99.90
2022-08-30T02:59:51.404Z,99.90
2022-08-30T03:04:57.919Z,99.90
2022-08-30T03:10:03.291Z,99.90
2022-08-30T03:15:10.196Z,99.90
2022-08-30T03:20:15.458Z,99.90
2022-08-30T03:25:21.506Z,99.90
2022-08-30T03:30:26.861Z,99.90
2022-08-30T03:35:33.212Z,99.90
2022-08-30T03:40:38.748Z,99.90
2022-08-30T03:45:44.969Z,99.90
2022-08-30T03:50:50.317Z,99.90
2022-08-30T03:55:55.806Z,99.90
2022-08-30T04:01:03.246Z,99.90
2022-08-30T04:06:09.062Z,99.90
2022-08-30T04:11:16.385Z,99.90
2022-08-30T04:16:22.144Z,99.90
2022-08-30T04:21:28.674Z,99.90
2022-08-30T04:26:34.270Z,99.90
2022-08-30T04:31:39.589Z,99.90
2022-08-30T04:36:48.331Z,99.90
2022-08-30T04:41:53.204Z,99.90
2022-08-30T04:46:59.269Z,99.90
2022-08-30T04:52:06.541Z,99.90
2022-08-30T04:57:12.096Z,99.90
2022-08-30T05:02:17.884Z,99.90
2022-08-30T05:07:23.163Z,99.90
2022-08-30T05:12:28.562Z,99.90
2022-08-30T05:17:33.838Z,99.90
2022-08-30T05:22:40.348Z,99.90
2022-08-30T05:27:46.325Z,99.90
2022-08-30T05:32:53.016Z,99.90
2022-08-30T05:37:58.202Z,99.90
2022-08-30T05:43:03.554Z,99.90
2022-08-30T05:48:09.753Z,99.90
2022-08-30T05:53:16.598Z,99.90
2022-08-30T05:58:22.781Z,99.90
2022-08-30T06:03:28.551Z,99.90
2022-08-30T06:08:33.787Z,99.90
2022-08-30T06:13:39.010Z,99.90
2022-08-30T06:18:44.613Z,99.90
2022-08-30T06:23:50.093Z,99.90
2022-08-30T06:28:56.469Z,99.90
2022-08-30T06:34:01.847Z,99.90
2022-08-30T06:39:07.843Z,99.90
2022-08-30T06:44:12.947Z,99.90
2022-08-30T06:49:18.077Z,99.90
2022-08-30T06:54:23.648Z,99.90
2022-08-30T06:59:28.892Z,99.90
2022-08-30T07:04:34.655Z,99.90
2022-08-30T07:09:41.455Z,99.90
2022-08-30T07:14:48.269Z,99.90
2022-08-30T07:20:13.545Z,99.90
2022-08-30T07:25:20.251Z,99.90
2022-08-30T07:30:33.303Z,99.90
2022-08-30T07:35:39.100Z,99.90
2022-08-30T07:40:44.385Z,99.90
2022-08-30T07:45:58.304Z,99.90
2022-08-30T07:51:05.537Z,99.90
2022-08-30T07:56:14.002Z,99.90
2022-08-30T08:01:26.853Z,99.90
2022-08-30T08:06:40.998Z,99.90
2022-08-30T08:12:06.431Z,99.90
2022-08-30T08:17:15.522Z,99.90
2022-08-30T08:27:57.750Z,99.90
2022-08-30T08:33:05.044Z,99.90
2022-08-30T08:38:10.639Z,99.90
2022-08-30T08:43:21.862Z,99.90
2022-08-30T08:48:59.629Z,99.90
2022-08-30T08:53:56.219Z,99.90
2022-08-30T08:59:01.618Z,99.70
2022-08-30T09:04:24.708Z,98.30
2022-08-30T09:09:33.390Z,97.10
2022-08-30T09:14:46.124Z,91.40
2022-08-30T09:19:58.550Z,91.20
2022-08-30T09:25:15.336Z,91.50
2022-08-30T09:30:28.600Z,91.50
2022-08-30T09:35:40.755Z,91.50
2022-08-30T09:40:55.561Z,91.90
2022-08-30T09:46:04.198Z,84.60
2022-08-30T09:51:15.526Z,78.70
2022-08-30T09:56:23.715Z,72.30
2022-08-30T10:01:44.026Z,73.50
2022-08-30T10:06:58.045Z,76.20
2022-08-30T10:12:21.301Z,74.30
2022-08-30T10:17:39.255Z,70.40
2022-08-30T10:23:03.277Z,68.60
2022-08-30T10:28:29.237Z,70.00
2022-08-30T10:33:40.139Z,72.40
2022-08-30T10:38:49.015Z,74.30
2022-08-30T10:43:57.171Z,72.80
2022-08-30T10:49:04.884Z,70.70
2022-08-30T10:54:25.636Z,70.60
2022-08-30T10:59:31.634Z,68.10
2022-08-30T11:05:09.590Z,71.80
2022-08-30T11:10:26.628Z,72.10
2022-08-30T11:15:34.907Z,72.30
2022-08-30T11:20:46.444Z,72.80
2022-08-30T11:25:57.863Z,67.00
2022-08-30T11:31:21.544Z,67.90
2022-08-30T11:36:37.920Z,67.10
2022-08-30T11:41:48.297Z,68.80
2022-08-30T11:46:56.588Z,68.10
2022-08-30T11:52:26.934Z,69.00
2022-08-30T11:57:31.641Z,68.00
2022-08-30T12:03:07.081Z,68.10
2022-08-30T12:08:27.911Z,68.00
2022-08-30T12:13:54.682Z,68.40
2022-08-30T12:19:04.697Z,67.10
2022-08-30T12:24:16.962Z,69.50
2022-08-30T12:29:25.540Z,69.60
2022-08-30T12:34:39.519Z,65.00
2022-08-30T12:39:46.321Z,64.20
2022-08-30T12:44:55.638Z,62.80
2022-08-30T12:50:01.209Z,60.70
2022-08-30T12:55:17.704Z,62.30
2022-08-30T13:00:46.268Z,63.10
2022-08-30T13:05:53.213Z,61.20
2022-08-30T13:11:08.523Z,64.20
2022-08-30T13:16:22.681Z,61.60
2022-08-30T13:21:33.836Z,62.80
2022-08-30T13:26:44.833Z,63.30
2022-08-30T13:31:56.656Z,61.50
2022-08-30T13:37:02.738Z,59.40
2022-08-30T13:47:34.703Z,56.80
2022-08-30T13:52:26.252Z,57.10
2022-08-30T14:03:22.271Z,55.40
2022-08-30T14:14:41.873Z,55.40
2022-08-30T14:20:13.838Z,57.50
2022-08-30T14:25:18.825Z,58.20
2022-08-30T14:30:26.985Z,58.70
2022-08-30T14:35:33.891Z,59.10
2022-08-30T14:40:40.359Z,59.50
2022-08-30T14:45:47.183Z,60.60
2022-08-30T14:50:58.367Z,61.20
2022-08-30T14:56:13.912Z,60.80
2022-08-30T15:01:25.210Z,61.10
2022-08-30T15:06:35.069Z,60.90
2022-08-30T15:11:43.494Z,61.30
2022-08-30T15:16:49.277Z,62.20
2022-08-30T15:21:57.885Z,73.10
2022-08-30T15:27:04.998Z,76.50
2022-08-30T15:32:16.870Z,78.80
2022-08-30T15:37:24.182Z,81.70
2022-08-30T15:42:32.103Z,82.70
2022-08-30T15:47:38.415Z,83.70
2022-08-30T15:52:45.224Z,85.50
2022-08-30T15:57:50.417Z,87.10
2022-08-30T16:02:55.776Z,87.20
2022-08-30T16:08:01.354Z,86.80
2022-08-30T16:13:08.028Z,87.20
2022-08-30T16:18:15.097Z,89.00
2022-08-30T16:23:20.299Z,89.50
2022-08-30T16:28:25.991Z,90.50
2022-08-30T16:33:31.764Z,91.80
2022-08-30T16:38:37.959Z,92.10
2022-08-30T16:43:44.850Z,92.90
2022-08-30T16:48:51.831Z,94.40
2022-08-30T16:54:00.078Z,95.80
2022-08-30T16:59:11.080Z,96.60
2022-08-30T17:04:18.372Z,98.30
2022-08-30T17:09:22.638Z,99.90
2022-08-30T17:14:29.325Z,99.90
2022-08-30T17:19:41.270Z,99.90
2022-08-30T17:24:46.939Z,99.90
2022-08-30T17:29:52.423Z,99.90
2022-08-30T17:35:00.657Z,99.90
2022-08-30T17:40:07.380Z,99.90
2022-08-30T17:45:17.377Z,99.90
2022-08-30T17:50:22.959Z,99.90
2022-08-30T17:55:31.084Z,99.90
2022-08-30T18:00:36.428Z,99.90
2022-08-30T18:05:44.978Z,99.90
2022-08-30T18:10:51.734Z,99.90
2022-08-30T18:15:57.658Z,99.90
2022-08-30T18:21:03.016Z,99.90
2022-08-30T18:26:08.435Z,99.90
2022-08-30T18:31:14.324Z,99.90
2022-08-30T18:36:19.789Z,99.90
2022-08-30T18:41:25.872Z,99.90
2022-08-30T18:46:31.150Z,99.90
2022-08-30T18:51:37.912Z,99.90
2022-08-30T18:56:45.095Z,99.90
2022-08-30T19:01:50.052Z,99.90
2022-08-30T19:06:55.445Z,99.90
2022-08-30T19:12:01.614Z,99.90
2022-08-30T19:17:07.590Z,99.90
2022-08-30T19:22:13.108Z,99.90
2022-08-30T19:27:21.534Z,99.90
2022-08-30T19:32:27.116Z,99.90
2022-08-30T19:37:32.505Z,99.90
2022-08-30T19:42:46.596Z,99.90
2022-08-30T19:47:47.478Z,99.90
2022-08-30T19:52:54.980Z,99.90
2022-08-30T19:58:00.473Z,99.90
2022-08-30T20:03:06.007Z,99.90
2022-08-30T20:08:11.772Z,99.90
2022-08-30T20:13:17.091Z,99.90
2022-08-30T20:18:26.128Z,99.90
2022-08-30T20:23:31.649Z,99.90
2022-08-30T20:28:39.105Z,99.90
2022-08-30T20:33:44.348Z,99.90
2022-08-30T20:38:49.558Z,99.90
2022-08-30T20:43:57.634Z,99.90
2022-08-30T20:49:03.745Z,99.90
2022-08-30T20:54:09.020Z,99.90
2022-08-30T20:59:15.141Z,99.90
2022-08-30T21:04:21.415Z,99.90
2022-08-30T21:09:26.777Z,99.90
2022-08-30T21:14:32.183Z,99.90
2022-08-30T21:19:40.876Z,99.90
2022-08-30T21:24:44.292Z,99.90
2022-08-30T21:29:49.739Z,99.90
2022-08-30T21:35:12.802Z,99.90
2022-08-30T21:40:19.101Z,99.90
2022-08-30T21:45:24.465Z,99.90
2022-08-30T21:50:29.699Z,99.90
2022-08-30T21:55:35.076Z,99.90
2022-08-30T22:00:40.380Z,99.90
2022-08-30T22:05:48.581Z,99.90
2022-08-30T22:10:54.318Z,99.90
2022-08-30T22:15:59.403Z,99.90
2022-08-30T22:21:05.351Z,99.90
2022-08-30T22:26:12.975Z,99.90
2022-08-30T22:31:19.538Z,99.90
2022-08-30T22:36:32.302Z,99.90
2022-08-30T22:41:39.631Z,99.90
2022-08-30T22:46:45.130Z,99.90
2022-08-30T22:51:50.794Z,99.90
2022-08-30T22:56:56.025Z,99.90
2022-08-30T23:02:01.609Z,99.90
2022-08-30T23:07:06.932Z,99.90
2022-08-30T23:12:12.191Z,99.90
2022-08-30T23:17:17.508Z,99.90
2022-08-30T23:22:22.594Z,99.90
2022-08-30T23:27:45.441Z,99.90
2022-08-30T23:33:08.282Z,99.90
2022-08-30T23:38:31.678Z,99.90
2022-08-30T23:43:55.719Z,99.90
2022-08-30T23:49:18.571Z,99.90
2022-08-30T23:54:41.738Z,99.90
